sensor_id;sensor_type;location;lat;lon;timestamp;pressure;altitude;pressure_sealevel;temperature;humidity
51313;BME280;37397;53.226;10.400;2024-01-30T00:00:45;102383.84;;;5.62;70.28
51313;BME280;37397;53.226;10.400;2024-01-30T00:03:12;102373.72;;;5.61;70.45
51313;BME280;37397;53.226;10.400;2024-01-30T00:05:39;102372.94;;;5.60;70.07
51313;BME280;37397;53.226;10.400;2024-01-30T00:08:06;102373.34;;;5.59;70.07
51313;BME280;37397;53.226;10.400;2024-01-30T00:10:33;102364.84;;;5.59;70.22
51313;BME280;37397;53.226;10.400;2024-01-30T00:12:59;102376.59;;;5.57;70.31
51313;BME280;37397;53.226;10.400;2024-01-30T00:15:26;102374.56;;;5.58;70.50
51313;BME280;37397;53.226;10.400;2024-01-30T00:17:52;102369.28;;;5.56;70.19
51313;BME280;37397;53.226;10.400;2024-01-30T00:20:20;102371.31;;;5.56;70.42
51313;BME280;37397;53.226;10.400;2024-01-30T00:22:47;102359.19;;;5.55;70.09
51313;BME280;37397;53.226;10.400;2024-01-30T00:25:14;102359.19;;;5.52;70.48
51313;BME280;37397;53.226;10.400;2024-01-30T00:27:41;102361.63;;;5.50;70.42
51313;BME280;37397;53.226;10.400;2024-01-30T00:30:08;102365.66;;;5.52;70.31
51313;BME280;37397;53.226;10.400;2024-01-30T00:32:35;102359.59;;;5.50;70.42
51313;BME280;37397;53.226;10.400;2024-01-30T00:35:02;102367.28;;;5.50;70.18
51313;BME280;37397;53.226;10.400;2024-01-30T00:37:28;102365.66;;;5.48;70.20
51313;BME280;37397;53.226;10.400;2024-01-30T00:39:55;102360.41;;;5.47;70.43
51313;BME280;37397;53.226;10.400;2024-01-30T00:42:21;102358.41;;;5.47;70.43
51313;BME280;37397;53.226;10.400;2024-01-30T00:44:50;102361.25;;;5.47;70.37
51313;BME280;37397;53.226;10.400;2024-01-30T00:47:17;102368.09;;;5.46;70.35
51313;BME280;37397;53.226;10.400;2024-01-30T00:49:43;102366.47;;;5.45;70.30
51313;BME280;37397;53.226;10.400;2024-01-30T00:52:10;102351.13;;;5.43;70.63
51313;BME280;37397;53.226;10.400;2024-01-30T00:54:37;102351.13;;;5.43;70.37
51313;BME280;37397;53.226;10.400;2024-01-30T00:57:04;102352.72;;;5.44;70.63
51313;BME280;37397;53.226;10.400;2024-01-30T00:59:30;102346.28;;;5.40;70.46
51313;BME280;37397;53.226;10.400;2024-01-30T01:01:57;102358.00;;;5.42;70.33
51313;BME280;37397;53.226;10.400;2024-01-30T01:04:24;102358.00;;;5.42;70.58
51313;BME280;37397;53.226;10.400;2024-01-30T01:06:50;102354.38;;;5.41;70.34
51313;BME280;37397;53.226;10.400;2024-01-30T01:09:18;102360.03;;;5.41;70.74
51313;BME280;37397;53.226;10.400;2024-01-30T01:11:44;102357.19;;;5.41;70.53
51313;BME280;37397;53.226;10.400;2024-01-30T01:14:10;102354.38;;;5.41;70.41
51313;BME280;37397;53.226;10.400;2024-01-30T01:16:37;102364.06;;;5.40;70.58
51313;BME280;37397;53.226;10.400;2024-01-30T01:19:03;102353.56;;;5.37;70.58
51313;BME280;37397;53.226;10.400;2024-01-30T01:21:31;102351.13;;;5.39;70.79
51313;BME280;37397;53.226;10.400;2024-01-30T01:23:57;102351.13;;;5.39;70.36
51313;BME280;37397;53.226;10.400;2024-01-30T01:26:24;102345.06;;;5.37;70.81
51313;BME280;37397;53.226;10.400;2024-01-30T01:28:50;102341.84;;;5.35;70.40
51313;BME280;37397;53.226;10.400;2024-01-30T01:31:17;102353.56;;;5.37;70.44
51313;BME280;37397;53.226;10.400;2024-01-30T01:33:44;102345.47;;;5.32;70.61
51313;BME280;37397;53.226;10.400;2024-01-30T01:36:13;102350.34;;;5.35;70.49
51313;BME280;37397;53.226;10.400;2024-01-30T01:38:40;102336.63;;;5.26;70.76
51313;BME280;37397;53.226;10.400;2024-01-30T01:41:06;102352.38;;;5.35;70.39
51313;BME280;37397;53.226;10.400;2024-01-30T01:43:33;102345.06;;;5.34;70.49
51313;BME280;37397;53.226;10.400;2024-01-30T01:45:59;102325.69;;;5.28;70.44
51313;BME280;37397;53.226;10.400;2024-01-30T01:48:28;102337.00;;;5.32;70.72
51313;BME280;37397;53.226;10.400;2024-01-30T01:50:56;102339.81;;;5.32;70.75
51313;BME280;37397;53.226;10.400;2024-01-30T01:53:23;102334.16;;;5.32;70.58
51313;BME280;37397;53.226;10.400;2024-01-30T01:55:50;102332.94;;;5.29;70.84
51313;BME280;37397;53.226;10.400;2024-01-30T01:58:19;102336.59;;;5.30;70.92
51313;BME280;37397;53.226;10.400;2024-01-30T02:00:47;102320.44;;;5.27;70.94
51313;BME280;37397;53.226;10.400;2024-01-30T02:03:17;102330.94;;;5.30;70.97
51313;BME280;37397;53.226;10.400;2024-01-30T02:05:45;102332.94;;;5.29;70.58
51313;BME280;37397;53.226;10.400;2024-01-30T02:08:11;102320.84;;;5.25;70.73
51313;BME280;37397;53.226;10.400;2024-01-30T02:10:39;102320.44;;;5.27;70.67
51313;BME280;37397;53.226;10.400;2024-01-30T02:13:06;102316.81;;;5.26;70.82
51313;BME280;37397;53.226;10.400;2024-01-30T02:15:32;102313.53;;;5.24;70.93
51313;BME280;37397;53.226;10.400;2024-01-30T02:17:59;102318.00;;;5.29;70.89
51313;BME280;37397;53.226;10.400;2024-01-30T02:20:27;102318.00;;;5.29;70.81
51313;BME280;37397;53.226;10.400;2024-01-30T02:22:58;102309.91;;;5.24;71.05
51313;BME280;37397;53.226;10.400;2024-01-30T02:25:32;102310.69;;;5.28;70.89
51313;BME280;37397;53.226;10.400;2024-01-30T02:27:59;102300.22;;;5.25;71.11
51313;BME280;37397;53.226;10.400;2024-01-30T02:30:26;102307.47;;;5.26;71.01
51313;BME280;37397;53.226;10.400;2024-01-30T02:32:53;102290.50;;;5.26;71.10
51313;BME280;37397;53.226;10.400;2024-01-30T02:35:19;102303.84;;;5.29;71.03
51313;BME280;37397;53.226;10.400;2024-01-30T02:37:46;102285.66;;;5.23;70.99
51313;BME280;37397;53.226;10.400;2024-01-30T02:40:12;102296.56;;;5.28;70.91
51313;BME280;37397;53.226;10.400;2024-01-30T02:42:39;102299.38;;;5.28;71.21
51313;BME280;37397;53.226;10.400;2024-01-30T02:45:06;102298.59;;;5.24;71.08
51313;BME280;37397;53.226;10.400;2024-01-30T02:47:33;102298.59;;;5.27;70.92
51313;BME280;37397;53.226;10.400;2024-01-30T02:49:59;102296.97;;;5.26;70.88
51313;BME280;37397;53.226;10.400;2024-01-30T02:52:26;102292.94;;;5.24;70.72
51313;BME280;37397;53.226;10.400;2024-01-30T02:54:53;102290.50;;;5.26;71.10
51313;BME280;37397;53.226;10.400;2024-01-30T02:57:19;102293.31;;;5.26;70.83
51313;BME280;37397;53.226;10.400;2024-01-30T02:59:46;102291.31;;;5.23;71.13
51313;BME280;37397;53.226;10.400;2024-01-30T03:02:12;102296.97;;;5.23;70.99
51313;BME280;37397;53.226;10.400;2024-01-30T03:04:41;102280.00;;;5.23;71.16
51313;BME280;37397;53.226;10.400;2024-01-30T03:07:08;102290.91;;;5.24;71.27
51313;BME280;37397;53.226;10.400;2024-01-30T03:09:36;102282.41;;;5.24;70.96
51313;BME280;37397;53.226;10.400;2024-01-30T03:12:04;102279.19;;;5.22;71.57
51313;BME280;37397;53.226;10.400;2024-01-30T03:14:34;102280.00;;;5.23;71.57
51313;BME280;37397;53.226;10.400;2024-01-30T03:17:01;102277.56;;;5.25;71.45
51313;BME280;37397;53.226;10.400;2024-01-30T03:19:28;102271.91;;;5.21;71.47
51313;BME280;37397;53.226;10.400;2024-01-30T03:21:55;102274.31;;;5.23;71.21
51313;BME280;37397;53.226;10.400;2024-01-30T03:24:21;102273.53;;;5.22;71.24
51313;BME280;37397;53.226;10.400;2024-01-30T03:26:48;102274.75;;;5.25;71.23
51313;BME280;37397;53.226;10.400;2024-01-30T03:29:14;102274.75;;;5.25;71.27
51313;BME280;37397;53.226;10.400;2024-01-30T03:31:42;102269.50;;;5.23;71.43
51313;BME280;37397;53.226;10.400;2024-01-30T03:34:08;102263.44;;;5.25;71.65
51313;BME280;37397;53.226;10.400;2024-01-30T03:36:35;102267.84;;;5.26;71.32
51313;BME280;37397;53.226;10.400;2024-01-30T03:39:01;102271.91;;;5.25;71.34
51313;BME280;37397;53.226;10.400;2024-01-30T03:41:28;102269.47;;;5.27;71.53
51313;BME280;37397;53.226;10.400;2024-01-30T03:43:54;102261.41;;;5.25;71.32
51313;BME280;37397;53.226;10.400;2024-01-30T03:46:21;102263.81;;;5.27;71.43
51313;BME280;37397;53.226;10.400;2024-01-30T03:48:47;102263.81;;;5.27;71.58
51313;BME280;37397;53.226;10.400;2024-01-30T03:51:14;102260.59;;;5.25;71.54
51313;BME280;37397;53.226;10.400;2024-01-30T03:53:43;102270.28;;;5.27;71.71
51313;BME280;37397;53.226;10.400;2024-01-30T03:56:09;102259.75;;;5.28;71.33
51313;BME280;37397;53.226;10.400;2024-01-30T03:58:36;102258.94;;;5.27;71.19
51313;BME280;37397;53.226;10.400;2024-01-30T04:01:02;102258.94;;;5.27;71.58
51313;BME280;37397;53.226;10.400;2024-01-30T04:03:30;102258.16;;;5.27;71.56
51313;BME280;37397;53.226;10.400;2024-01-30T04:05:57;102263.81;;;5.27;71.18
51313;BME280;37397;53.226;10.400;2024-01-30T04:08:23;102258.16;;;5.27;71.54
51313;BME280;37397;53.226;10.400;2024-01-30T04:10:50;102273.50;;;5.26;71.39
51313;BME280;37397;53.226;10.400;2024-01-30T04:13:16;102265.03;;;5.26;71.27
51313;BME280;37397;53.226;10.400;2024-01-30T04:15:43;102237.56;;;5.16;71.55
51313;BME280;37397;53.226;10.400;2024-01-30T04:18:09;102247.66;;;5.24;71.26
51313;BME280;37397;53.226;10.400;2024-01-30T04:20:36;102253.69;;;5.26;71.13
51313;BME280;37397;53.226;10.400;2024-01-30T04:23:02;102254.94;;;5.25;71.59
51313;BME280;37397;53.226;10.400;2024-01-30T04:25:29;102246.03;;;5.23;71.30
51313;BME280;37397;53.226;10.400;2024-01-30T04:27:56;102250.88;;;5.26;71.31
51313;BME280;37397;53.226;10.400;2024-01-30T04:30:22;102245.22;;;5.22;71.46
51313;BME280;37397;53.226;10.400;2024-01-30T04:32:49;102253.31;;;5.24;71.18
51313;BME280;37397;53.226;10.400;2024-01-30T04:35:16;102254.94;;;5.25;71.47
51313;BME280;37397;53.226;10.400;2024-01-30T04:37:43;102254.94;;;5.25;71.50
51313;BME280;37397;53.226;10.400;2024-01-30T04:40:09;102252.09;;;5.25;71.58
51313;BME280;37397;53.226;10.400;2024-01-30T04:42:36;102259.78;;;5.24;71.40
51313;BME280;37397;53.226;10.400;2024-01-30T04:45:03;102263.00;;;5.23;71.42
51313;BME280;37397;53.226;10.400;2024-01-30T04:47:29;102261.81;;;5.24;71.21
51313;BME280;37397;53.226;10.400;2024-01-30T04:49:56;102258.97;;;5.24;71.68
51313;BME280;37397;53.226;10.400;2024-01-30T04:52:23;102256.94;;;5.24;71.29
51313;BME280;37397;53.226;10.400;2024-01-30T04:54:49;102257.34;;;5.23;71.51
51313;BME280;37397;53.226;10.400;2024-01-30T04:57:16;102259.78;;;5.24;71.53
51313;BME280;37397;53.226;10.400;2024-01-30T04:59:42;102251.28;;;5.21;71.53
51313;BME280;37397;53.226;10.400;2024-01-30T05:02:09;102258.19;;;5.23;71.33
51313;BME280;37397;53.226;10.400;2024-01-30T05:04:36;102259.78;;;5.21;71.65
51313;BME280;37397;53.226;10.400;2024-01-30T05:07:02;102252.50;;;5.20;71.44
51313;BME280;37397;53.226;10.400;2024-01-30T05:09:29;102254.94;;;5.21;71.27
51313;BME280;37397;53.226;10.400;2024-01-30T05:11:56;102255.75;;;5.22;71.25
51313;BME280;37397;53.226;10.400;2024-01-30T05:14:22;102259.78;;;5.21;71.36
51313;BME280;37397;53.226;10.400;2024-01-30T05:16:49;102260.59;;;5.18;71.31
51313;BME280;37397;53.226;10.400;2024-01-30T05:19:15;102254.13;;;5.21;71.13
51313;BME280;37397;53.226;10.400;2024-01-30T05:21:44;102259.78;;;5.21;71.45
51313;BME280;37397;53.226;10.400;2024-01-30T05:24:10;102263.44;;;5.18;71.18
51313;BME280;37397;53.226;10.400;2024-01-30T05:26:37;102264.63;;;5.17;71.04
51313;BME280;37397;53.226;10.400;2024-01-30T05:29:04;102273.53;;;5.19;71.38
51313;BME280;37397;53.226;10.400;2024-01-30T05:31:31;102267.88;;;5.19;71.42
51313;BME280;37397;53.226;10.400;2024-01-30T05:33:58;102257.78;;;5.18;71.48
51313;BME280;37397;53.226;10.400;2024-01-30T05:36:24;102254.56;;;5.16;71.40
51313;BME280;37397;53.226;10.400;2024-01-30T05:38:51;102241.22;;;5.13;71.11
51313;BME280;37397;53.226;10.400;2024-01-30T05:41:18;102241.19;;;5.16;71.31
51313;BME280;37397;53.226;10.400;2024-01-30T05:43:44;102248.50;;;5.14;71.16
51313;BME280;37397;53.226;10.400;2024-01-30T05:46:11;102240.41;;;5.12;71.35
51313;BME280;37397;53.226;10.400;2024-01-30T05:48:38;102232.75;;;5.09;71.45
51313;BME280;37397;53.226;10.400;2024-01-30T05:51:04;102243.25;;;5.12;71.39
51313;BME280;37397;53.226;10.400;2024-01-30T05:53:34;102240.41;;;5.08;71.46
51313;BME280;37397;53.226;10.400;2024-01-30T05:56:01;102238.78;;;5.11;71.40
51313;BME280;37397;53.226;10.400;2024-01-30T05:58:28;102249.31;;;5.10;71.25
51313;BME280;37397;53.226;10.400;2024-01-30T06:00:55;102242.03;;;5.09;71.23
51313;BME280;37397;53.226;10.400;2024-01-30T06:03:22;102240.00;;;5.10;71.24
51313;BME280;37397;53.226;10.400;2024-01-30T06:05:48;102236.38;;;5.09;71.63
51313;BME280;37397;53.226;10.400;2024-01-30T06:08:15;102227.47;;;5.04;71.63
51313;BME280;37397;53.226;10.400;2024-01-30T06:10:42;102235.56;;;5.05;71.57
51313;BME280;37397;53.226;10.400;2024-01-30T06:13:08;102234.75;;;5.08;71.63
51313;BME280;37397;53.226;10.400;2024-01-30T06:15:35;102224.25;;;5.05;71.68
51313;BME280;37397;53.226;10.400;2024-01-30T06:18:01;102223.03;;;5.06;71.76
51313;BME280;37397;53.226;10.400;2024-01-30T06:20:28;102229.09;;;5.08;71.87
51313;BME280;37397;53.226;10.400;2024-01-30T06:22:55;102228.28;;;5.08;71.67
51313;BME280;37397;53.226;10.400;2024-01-30T06:25:21;102221.41;;;5.05;71.56
51313;BME280;37397;53.226;10.400;2024-01-30T06:27:48;102224.25;;;5.05;71.48
51313;BME280;37397;53.226;10.400;2024-01-30T06:30:15;102218.19;;;5.07;71.77
51313;BME280;37397;53.226;10.400;2024-01-30T06:32:41;102224.25;;;5.09;71.71
51313;BME280;37397;53.226;10.400;2024-01-30T06:35:08;102221.00;;;5.07;71.69
51313;BME280;37397;53.226;10.400;2024-01-30T06:37:36;102221.84;;;5.07;71.57
51313;BME280;37397;53.226;10.400;2024-01-30T06:40:03;102220.22;;;5.06;71.86
51313;BME280;37397;53.226;10.400;2024-01-30T06:42:31;102209.69;;;5.07;71.77
51313;BME280;37397;53.226;10.400;2024-01-30T06:44:58;102208.91;;;5.06;71.87
51313;BME280;37397;53.226;10.400;2024-01-30T06:47:24;102200.81;;;5.05;71.61
51313;BME280;37397;53.226;10.400;2024-01-30T06:49:51;102199.19;;;5.04;72.12
51313;BME280;37397;53.226;10.400;2024-01-30T06:52:17;102201.59;;;5.05;71.71
51313;BME280;37397;53.226;10.400;2024-01-30T06:54:44;102202.44;;;5.06;72.40
51313;BME280;37397;53.226;10.400;2024-01-30T06:57:11;102207.69;;;5.07;71.82
51313;BME280;37397;53.226;10.400;2024-01-30T06:59:38;102196.78;;;5.06;72.11
51313;BME280;37397;53.226;10.400;2024-01-30T07:02:10;102199.59;;;5.06;71.96
51313;BME280;37397;53.226;10.400;2024-01-30T07:04:37;102199.19;;;5.07;71.95
51313;BME280;37397;53.226;10.400;2024-01-30T07:07:05;102198.78;;;5.09;72.04
51313;BME280;37397;53.226;10.400;2024-01-30T07:09:32;102193.53;;;5.07;72.16
51313;BME280;37397;53.226;10.400;2024-01-30T07:12:00;102205.25;;;5.09;72.41
51313;BME280;37397;53.226;10.400;2024-01-30T07:14:27;102211.69;;;5.10;72.32
51313;BME280;37397;53.226;10.400;2024-01-30T07:16:53;102200.00;;;5.08;71.96
51313;BME280;37397;53.226;10.400;2024-01-30T07:19:20;102208.47;;;5.11;72.13
51313;BME280;37397;53.226;10.400;2024-01-30T07:21:47;102201.63;;;5.09;72.13
51313;BME280;37397;53.226;10.400;2024-01-30T07:24:13;102204.03;;;5.10;72.31
51313;BME280;37397;53.226;10.400;2024-01-30T07:26:40;102205.63;;;5.11;72.03
51313;BME280;37397;53.226;10.400;2024-01-30T07:29:07;102204.44;;;5.13;72.05
51313;BME280;37397;53.226;10.400;2024-01-30T07:31:34;102205.63;;;5.11;72.14
51313;BME280;37397;53.226;10.400;2024-01-30T07:34:03;102210.88;;;5.13;72.21
51313;BME280;37397;53.226;10.400;2024-01-30T07:36:30;102208.88;;;5.14;72.30
51313;BME280;37397;53.226;10.400;2024-01-30T07:38:56;102207.25;;;5.13;72.36
51313;BME280;37397;53.226;10.400;2024-01-30T07:41:23;102208.88;;;5.14;72.04
51313;BME280;37397;53.226;10.400;2024-01-30T07:43:52;102210.47;;;5.15;72.10
51313;BME280;37397;53.226;10.400;2024-01-30T07:46:20;102212.09;;;5.16;72.37
51313;BME280;37397;53.226;10.400;2024-01-30T07:48:47;102203.19;;;5.17;72.37
51313;BME280;37397;53.226;10.400;2024-01-30T07:51:16;102200.41;;;5.14;72.37
51313;BME280;37397;53.226;10.400;2024-01-30T07:53:42;102197.13;;;5.15;72.66
51313;BME280;37397;53.226;10.400;2024-01-30T07:56:09;102192.69;;;5.18;72.55
51313;BME280;37397;53.226;10.400;2024-01-30T07:58:36;102191.88;;;5.17;72.50
51313;BME280;37397;53.226;10.400;2024-01-30T08:01:03;102189.47;;;5.16;72.61
51313;BME280;37397;53.226;10.400;2024-01-30T08:03:30;102201.56;;;5.20;72.42
51313;BME280;37397;53.226;10.400;2024-01-30T08:05:57;102186.22;;;5.17;72.51
51313;BME280;37397;53.226;10.400;2024-01-30T08:08:24;102192.25;;;5.23;72.41
51313;BME280;37397;53.226;10.400;2024-01-30T08:10:50;102199.94;;;5.22;72.58
51313;BME280;37397;53.226;10.400;2024-01-30T08:13:17;102195.09;;;5.23;72.67
51313;BME280;37397;53.226;10.400;2024-01-30T08:15:43;102195.91;;;5.23;72.29
51313;BME280;37397;53.226;10.400;2024-01-30T08:18:10;102192.66;;;5.25;72.45
51313;BME280;37397;53.226;10.400;2024-01-30T08:20:37;102187.00;;;5.25;72.48
51313;BME280;37397;53.226;10.400;2024-01-30T08:23:03;102190.22;;;5.27;72.31
51313;BME280;37397;53.226;10.400;2024-01-30T08:25:30;102189.81;;;5.28;72.53
51313;BME280;37397;53.226;10.400;2024-01-30T08:27:56;102191.03;;;5.27;72.70
51313;BME280;37397;53.226;10.400;2024-01-30T08:30:24;102180.50;;;5.28;72.69
51313;BME280;37397;53.226;10.400;2024-01-30T08:32:51;102182.13;;;5.29;72.51
51313;BME280;37397;53.226;10.400;2024-01-30T08:35:18;102182.91;;;5.29;72.41
51313;BME280;37397;53.226;10.400;2024-01-30T08:37:45;102181.31;;;5.32;72.59
51313;BME280;37397;53.226;10.400;2024-01-30T08:40:12;102172.81;;;5.32;72.70
51313;BME280;37397;53.226;10.400;2024-01-30T08:42:38;102184.53;;;5.34;72.46
51313;BME280;37397;53.226;10.400;2024-01-30T08:45:05;102177.66;;;5.35;72.65
51313;BME280;37397;53.226;10.400;2024-01-30T08:47:32;102171.59;;;5.37;72.56
51313;BME280;37397;53.226;10.400;2024-01-30T08:49:59;102176.03;;;5.38;72.57
51313;BME280;37397;53.226;10.400;2024-01-30T08:52:26;102174.00;;;5.38;72.86
51313;BME280;37397;53.226;10.400;2024-01-30T08:54:53;102180.47;;;5.39;72.57
51313;BME280;37397;53.226;10.400;2024-01-30T08:57:20;102173.19;;;5.41;72.59
51313;BME280;37397;53.226;10.400;2024-01-30T08:59:47;102178.44;;;5.43;72.94
51313;BME280;37397;53.226;10.400;2024-01-30T09:02:14;102180.84;;;5.44;72.63
51313;BME280;37397;53.226;10.400;2024-01-30T09:04:42;102179.63;;;5.45;72.67
51313;BME280;37397;53.226;10.400;2024-01-30T09:07:09;102171.13;;;5.45;72.80
51313;BME280;37397;53.226;10.400;2024-01-30T09:09:38;102167.47;;;5.48;72.62
51313;BME280;37397;53.226;10.400;2024-01-30T09:12:06;102169.09;;;5.50;73.08
51313;BME280;37397;53.226;10.400;2024-01-30T09:14:36;102158.97;;;5.48;72.90
51313;BME280;37397;53.226;10.400;2024-01-30T09:17:03;102165.84;;;5.51;72.93
51313;BME280;37397;53.226;10.400;2024-01-30T09:19:30;102155.31;;;5.52;73.15
51313;BME280;37397;53.226;10.400;2024-01-30T09:21:57;102157.72;;;5.53;73.34
51313;BME280;37397;53.226;10.400;2024-01-30T09:24:25;102154.91;;;5.53;73.31
51313;BME280;37397;53.226;10.400;2024-01-30T09:26:52;102156.13;;;5.56;73.51
51313;BME280;37397;53.226;10.400;2024-01-30T09:29:19;102157.31;;;5.55;73.41
51313;BME280;37397;53.226;10.400;2024-01-30T09:31:45;102159.34;;;5.58;73.51
51313;BME280;37397;53.226;10.400;2024-01-30T09:34:13;102169.44;;;5.59;73.57
51313;BME280;37397;53.226;10.400;2024-01-30T09:36:39;102165.38;;;5.60;73.41
51313;BME280;37397;53.226;10.400;2024-01-30T09:39:06;102164.56;;;5.63;73.40
51313;BME280;37397;53.226;10.400;2024-01-30T09:44:19;102155.66;;;5.64;73.66
51313;BME280;37397;53.226;10.400;2024-01-30T09:46:47;102160.91;;;5.66;73.81
51313;BME280;37397;53.226;10.400;2024-01-30T09:49:17;102167.34;;;5.70;73.81
51313;BME280;37397;53.226;10.400;2024-01-30T09:51:48;102155.19;;;5.70;73.74
51313;BME280;37397;53.226;10.400;2024-01-30T09:54:15;102153.56;;;5.72;73.98
51313;BME280;37397;53.226;10.400;2024-01-30T09:56:42;102155.59;;;5.75;74.17
51313;BME280;37397;53.226;10.400;2024-01-30T09:59:08;102147.09;;;5.75;74.13
51313;BME280;37397;53.226;10.400;2024-01-30T10:01:36;102155.97;;;5.77;74.09
51313;BME280;37397;53.226;10.400;2024-01-30T10:04:04;102153.94;;;5.81;74.11
51313;BME280;37397;53.226;10.400;2024-01-30T10:06:31;102160.78;;;5.84;74.24
51313;BME280;37397;53.226;10.400;2024-01-30T10:08:57;102162.41;;;5.85;74.30
51313;BME280;37397;53.226;10.400;2024-01-30T10:11:24;102165.19;;;5.89;74.42
51313;BME280;37397;53.226;10.400;2024-01-30T10:13:53;102162.38;;;5.89;74.50
51313;BME280;37397;53.226;10.400;2024-01-30T10:16:20;102160.75;;;5.91;74.76
51313;BME280;37397;53.226;10.400;2024-01-30T10:18:47;102157.50;;;5.93;74.38
51313;BME280;37397;53.226;10.400;2024-01-30T10:21:14;102164.34;;;5.95;74.43
51313;BME280;37397;53.226;10.400;2024-01-30T10:23:40;102155.84;;;5.99;74.84
51313;BME280;37397;53.226;10.400;2024-01-30T10:26:07;102144.53;;;5.99;74.61
51313;BME280;37397;53.226;10.400;2024-01-30T10:28:34;102150.94;;;6.03;74.73
51313;BME280;37397;53.226;10.400;2024-01-30T10:31:01;102141.25;;;6.04;74.55
51313;BME280;37397;53.226;10.400;2024-01-30T10:33:32;102136.31;;;6.08;74.57
51313;BME280;37397;53.226;10.400;2024-01-30T10:36:03;102146.03;;;6.11;74.75
51313;BME280;37397;53.226;10.400;2024-01-30T10:38:32;102144.38;;;6.13;74.94
51313;BME280;37397;53.226;10.400;2024-01-30T10:41:02;102128.19;;;6.14;74.91
51313;BME280;37397;53.226;10.400;2024-01-30T10:43:35;102134.63;;;6.18;75.02
51313;BME280;37397;53.226;10.400;2024-01-30T10:46:06;102123.31;;;6.14;75.48
51313;BME280;37397;53.226;10.400;2024-01-30T10:48:36;102120.06;;;6.16;74.97
51313;BME280;37397;53.226;10.400;2024-01-30T10:51:09;102116.78;;;6.21;75.17
51313;BME280;37397;53.226;10.400;2024-01-30T10:53:37;102116.78;;;6.21;75.44
51313;BME280;37397;53.226;10.400;2024-01-30T10:56:05;102117.56;;;6.25;75.49
51313;BME280;37397;53.226;10.400;2024-01-30T10:58:32;102117.53;;;6.29;75.26
51313;BME280;37397;53.226;10.400;2024-01-30T11:00:59;102117.06;;;6.34;75.40
51313;BME280;37397;53.226;10.400;2024-01-30T11:03:26;102110.56;;;6.37;75.60
51313;BME280;37397;53.226;10.400;2024-01-30T11:05:53;102110.94;;;6.39;75.34
51313;BME280;37397;53.226;10.400;2024-01-30T11:08:26;102121.44;;;6.42;75.32
51313;BME280;37397;53.226;10.400;2024-01-30T11:10:58;102118.19;;;6.44;75.34
51313;BME280;37397;53.226;10.400;2024-01-30T11:13:31;102110.09;;;6.46;75.50
51313;BME280;37397;53.226;10.400;2024-01-30T11:16:05;102111.63;;;6.50;75.72
51313;BME280;37397;53.226;10.400;2024-01-30T11:18:33;102110.00;;;6.53;75.65
51313;BME280;37397;53.226;10.400;2024-01-30T11:21:00;102109.94;;;6.56;75.54
51313;BME280;37397;53.226;10.400;2024-01-30T11:23:28;102110.34;;;6.59;75.91
51313;BME280;37397;53.226;10.400;2024-01-30T11:25:56;102112.31;;;6.62;75.68
51313;BME280;37397;53.226;10.400;2024-01-30T11:28:24;102100.13;;;6.65;75.39
51313;BME280;37397;53.226;10.400;2024-01-30T11:30:50;102097.69;;;6.67;75.61
51313;BME280;37397;53.226;10.400;2024-01-30T11:33:28;102098.06;;;6.69;75.94
51313;BME280;37397;53.226;10.400;2024-01-30T11:36:01;102087.50;;;6.73;75.62
51313;BME280;37397;53.226;10.400;2024-01-30T11:38:29;102092.72;;;6.74;76.10
51313;BME280;37397;53.226;10.400;2024-01-30T11:40:55;102091.44;;;6.79;75.80
51313;BME280;37397;53.226;10.400;2024-01-30T11:43:25;102092.66;;;6.82;75.89
51313;BME280;37397;53.226;10.400;2024-01-30T11:45:52;102091.38;;;6.86;76.06
51313;BME280;37397;53.226;10.400;2024-01-30T11:48:19;102098.66;;;6.87;75.91
51313;BME280;37397;53.226;10.400;2024-01-30T11:50:46;102097.38;;;6.92;75.97
51313;BME280;37397;53.226;10.400;2024-01-30T11:53:12;102094.13;;;6.93;76.10
51313;BME280;37397;53.226;10.400;2024-01-30T11:55:39;102099.75;;;6.97;75.74
51313;BME280;37397;53.226;10.400;2024-01-30T11:58:06;102091.63;;;6.99;76.06
51313;BME280;37397;53.226;10.400;2024-01-30T12:00:33;102092.38;;;7.03;76.19
51313;BME280;37397;53.226;10.400;2024-01-30T12:03:01;102087.50;;;7.04;76.14
51313;BME280;37397;53.226;10.400;2024-01-30T12:05:29;102085.81;;;7.10;76.06
51313;BME280;37397;53.226;10.400;2024-01-30T12:07:56;102081.72;;;7.11;76.27
51313;BME280;37397;53.226;10.400;2024-01-30T12:10:26;102084.50;;;7.15;76.05
51313;BME280;37397;53.226;10.400;2024-01-30T12:12:54;102080.41;;;7.19;76.06
51313;BME280;37397;53.226;10.400;2024-01-30T12:15:21;102080.78;;;7.21;76.26
51313;BME280;37397;53.226;10.400;2024-01-30T12:17:48;102074.22;;;7.24;76.32
51313;BME280;37397;53.226;10.400;2024-01-30T12:20:19;102082.31;;;7.29;76.15
51313;BME280;37397;53.226;10.400;2024-01-30T12:22:48;102077.78;;;7.32;76.32
51313;BME280;37397;53.226;10.400;2024-01-30T12:25:16;102077.78;;;7.32;76.10
51313;BME280;37397;53.226;10.400;2024-01-30T12:27:48;102066.00;;;7.34;76.26
51313;BME280;37397;53.226;10.400;2024-01-30T12:30:17;102077.25;;;7.41;76.31
51313;BME280;37397;53.226;10.400;2024-01-30T12:32:45;102080.84;;;7.45;76.35
51313;BME280;37397;53.226;10.400;2024-01-30T12:35:14;102077.16;;;7.48;76.24
51313;BME280;37397;53.226;10.400;2024-01-30T12:37:43;102075.50;;;7.51;76.39
51313;BME280;37397;53.226;10.400;2024-01-30T12:40:10;102074.66;;;7.50;76.15
51313;BME280;37397;53.226;10.400;2024-01-30T12:42:43;102074.22;;;7.55;76.28
51313;BME280;37397;53.226;10.400;2024-01-30T12:45:16;102075.38;;;7.58;76.44
51313;BME280;37397;53.226;10.400;2024-01-30T12:47:42;102068.84;;;7.61;76.24
51313;BME280;37397;53.226;10.400;2024-01-30T12:50:09;102062.34;;;7.60;76.25
51313;BME280;37397;53.226;10.400;2024-01-30T12:52:36;102061.50;;;7.63;76.36